Time;durP1;ratioP1;P1;durP2;ratioP2;P2;SDS_P1;SDS_P2;PMS_P1;PMS_P2;Temp;Humidity;BMP_temperature;BMP_pressure;BME280_temperature;BME280_humidity;BME280_pressure;Samples;Min_cycle;Max_cycle;Signal;HPM_P1;HPM_P2
2021/06/16 00:01:58;;;;;;;27.10;25.70;;;19.90;68.30;;;;;;4999795;28;20473;-77
2021/06/16 00:04:25;;;;;;;27.20;25.60;;;19.90;68.20;;;;;;4984124;28;20609;-77
2021/06/16 00:06:52;;;;;;;28.43;26.73;;;19.80;68.70;;;;;;5002587;28;20454;-77
2021/06/16 00:09:19;;;;;;;27.37;25.80;;;19.80;68.80;;;;;;4980544;28;20468;-77
2021/06/16 00:11:46;;;;;;;27.60;26.00;;;19.90;68.70;;;;;;4979995;28;20495;-78
2021/06/16 00:14:14;;;;;;;27.77;26.27;;;19.90;68.80;;;;;;4988865;28;20478;-77
2021/06/16 00:16:42;;;;;;;27.80;26.30;;;19.80;69.00;;;;;;5014406;28;20470;-77
2021/06/16 00:19:09;;;;;;;28.10;26.60;;;19.70;69.20;;;;;;4982016;28;20450;-76
2021/06/16 00:21:35;;;;;;;27.93;26.43;;;19.70;69.40;;;;;;4986501;28;20458;-76
2021/06/16 00:24:02;;;;;;;27.47;25.83;;;19.60;69.50;;;;;;4997789;28;20868;-77
2021/06/16 00:26:29;;;;;;;28.20;26.30;;;19.60;69.80;;;;;;4992199;28;20471;-77
2021/06/16 00:28:56;;;;;;;28.00;26.30;;;19.60;69.70;;;;;;4969647;28;20470;-77
2021/06/16 00:31:24;;;;;;;28.17;26.47;;;19.70;69.50;;;;;;4970905;28;20486;-77
2021/06/16 00:33:51;;;;;;;28.43;26.83;;;19.70;69.40;;;;;;4976790;28;20573;-77
2021/06/16 00:36:18;;;;;;;27.47;25.87;;;19.70;69.50;;;;;;4982324;28;20475;-77
2021/06/16 00:38:45;;;;;;;28.20;26.60;;;19.70;69.60;;;;;;5000613;28;22247;-76
2021/06/16 00:41:12;;;;;;;28.00;26.20;;;19.70;69.60;;;;;;4987282;28;20459;-77
2021/06/16 00:43:40;;;;;;;28.30;26.60;;;19.70;69.70;;;;;;4985837;28;20567;-77
2021/06/16 00:46:06;;;;;;;27.50;26.00;;;19.70;69.80;;;;;;4991172;28;20471;-76
2021/06/16 00:48:35;;;;;;;27.53;26.03;;;19.60;70.20;;;;;;4998172;28;20497;-76
2021/06/16 00:51:02;;;;;;;28.53;26.93;;;19.60;70.40;;;;;;4990488;28;20482;-76
2021/06/16 00:53:28;;;;;;;27.67;26.07;;;19.50;70.60;;;;;;4992713;28;20513;-76
2021/06/16 00:55:55;;;;;;;26.77;25.37;;;19.60;70.40;;;;;;4978544;28;20456;-76
2021/06/16 00:58:23;;;;;;;27.30;25.70;;;19.50;70.60;;;;;;5004056;28;20474;-76
2021/06/16 01:00:55;;;;;;;28.63;27.03;;;19.50;70.70;;;;;;4975846;28;20465;-76
2021/06/16 01:03:26;;;;;;;28.20;26.70;;;19.40;70.90;;;;;;4963761;28;20597;-76
2021/06/16 01:06:02;;;;;;;27.40;25.70;;;19.40;71.00;;;;;;4963509;28;20577;-77
2021/06/16 01:08:36;;;;;;;26.80;25.40;;;19.30;71.30;;;;;;4955128;28;20470;-77
2021/06/16 01:11:08;;;;;;;28.27;26.67;;;19.30;71.30;;;;;;4992180;28;20466;-77
2021/06/16 01:13:43;;;;;;;26.37;24.97;;;19.30;71.20;;;;;;4971251;28;20542;-77
2021/06/16 01:16:16;;;;;;;27.17;25.67;;;19.30;71.20;;;;;;4988144;28;20468;-78
2021/06/16 01:18:46;;;;;;;27.63;26.13;;;19.20;71.30;;;;;;4989087;28;20461;-77
2021/06/16 01:21:16;;;;;;;28.00;26.50;;;19.30;71.20;;;;;;4994862;28;20463;-77
2021/06/16 01:23:52;;;;;;;28.90;27.20;;;19.20;71.60;;;;;;4978971;28;20478;-77
2021/06/16 01:26:25;;;;;;;28.40;26.80;;;19.20;71.70;;;;;;5024691;28;20915;-77
2021/06/16 01:28:56;;;;;;;27.70;26.00;;;19.20;72.00;;;;;;5004495;28;20848;-77
2021/06/16 01:31:24;;;;;;;26.73;25.23;;;19.20;72.20;;;;;;4997117;28;20485;-78
2021/06/16 01:33:52;;;;;;;29.43;27.23;;;19.20;72.20;;;;;;4972299;28;20486;-77
2021/06/16 01:36:25;;;;;;;28.27;26.60;;;19.20;72.00;;;;;;5001668;28;20462;-77
2021/06/16 01:38:52;;;;;;;27.57;25.87;;;19.10;72.00;;;;;;4982313;28;20467;-77
2021/06/16 01:41:22;;;;;;;27.97;26.43;;;19.00;72.30;;;;;;4985707;28;20467;-78
2021/06/16 01:43:52;;;;;;;27.10;25.50;;;19.00;72.50;;;;;;5028075;28;20481;-77
2021/06/16 01:46:22;;;;;;;27.70;26.10;;;18.90;73.10;;;;;;4986492;28;20463;-77
2021/06/16 01:48:49;;;;;;;29.33;27.73;;;18.80;73.30;;;;;;4986447;28;20821;-76
2021/06/16 01:51:17;;;;;;;27.93;26.33;;;18.80;73.40;;;;;;4983756;28;20456;-76
2021/06/16 01:53:44;;;;;;;28.30;26.60;;;18.80;73.60;;;;;;4988436;28;20493;-76
2021/06/16 01:56:12;;;;;;;28.47;26.93;;;18.80;73.50;;;;;;4986126;28;20462;-76
2021/06/16 01:58:44;;;;;;;27.50;25.80;;;18.90;73.40;;;;;;4990760;28;20458;-76
2021/06/16 02:01:11;;;;;;;28.57;26.77;;;18.90;73.40;;;;;;5008214;28;20466;-76
2021/06/16 02:03:38;;;;;;;27.90;26.23;;;18.90;73.70;;;;;;4979352;28;20486;-76
2021/06/16 02:06:06;;;;;;;28.73;27.00;;;18.80;73.90;;;;;;5017150;28;20454;-76
2021/06/16 02:08:36;;;;;;;28.50;27.00;;;18.80;73.90;;;;;;4980525;28;20661;-76
2021/06/16 02:11:04;;;;;;;27.90;26.40;;;18.80;74.10;;;;;;4993633;28;20465;-76
2021/06/16 02:13:36;;;;;;;28.80;27.00;;;18.70;74.40;;;;;;4987355;28;20493;-76
2021/06/16 02:16:08;;;;;;;28.37;26.63;;;18.70;74.50;;;;;;4992167;28;20982;-76
2021/06/16 02:18:39;;;;;;;28.33;26.63;;;18.70;74.60;;;;;;4983461;28;21250;-76
2021/06/16 02:21:06;;;;;;;28.40;26.80;;;18.60;74.80;;;;;;4991588;28;20463;-76
2021/06/16 02:23:33;;;;;;;27.90;26.40;;;18.60;75.00;;;;;;4989707;28;20565;-76
2021/06/16 02:26:00;;;;;;;28.47;26.80;;;18.50;75.30;;;;;;4988451;28;20481;-76
2021/06/16 02:28:27;;;;;;;27.00;25.57;;;18.50;75.50;;;;;;4978856;28;20472;-76
2021/06/16 02:30:54;;;;;;;27.60;26.13;;;18.60;75.30;;;;;;4982273;28;21210;-76
2021/06/16 02:33:22;;;;;;;27.93;26.27;;;18.60;75.30;;;;;;4972629;28;20867;-76
2021/06/16 02:35:49;;;;;;;28.93;27.13;;;18.70;75.10;;;;;;4980126;28;20560;-76
2021/06/16 02:38:21;;;;;;;28.07;26.47;;;18.70;75.00;;;;;;4985980;28;20470;-76
2021/06/16 02:40:49;;;;;;;28.40;26.80;;;18.70;75.10;;;;;;4992027;28;20455;-76
2021/06/16 02:43:17;;;;;;;28.73;27.20;;;18.60;75.40;;;;;;4991297;28;20478;-76
2021/06/16 02:45:45;;;;;;;28.30;26.40;;;18.60;75.60;;;;;;4993074;28;20462;-76
2021/06/16 02:48:13;;;;;;;27.80;26.10;;;18.50;76.00;;;;;;5012470;28;20465;-76
2021/06/16 02:50:45;;;;;;;29.33;27.63;;;18.60;75.80;;;;;;4992006;28;21177;-76
2021/06/16 02:53:16;;;;;;;29.73;28.07;;;18.50;76.20;;;;;;5001700;28;20485;-76
2021/06/16 02:55:44;;;;;;;27.80;26.17;;;18.40;76.40;;;;;;4986756;28;20504;-76
2021/06/16 02:58:12;;;;;;;29.10;27.40;;;18.30;76.80;;;;;;4988057;28;20558;-76
2021/06/16 03:00:39;;;;;;;29.53;27.40;;;18.30;76.90;;;;;;4986181;28;20477;-76
2021/06/16 03:03:08;;;;;;;30.90;29.00;;;18.40;76.70;;;;;;4985431;28;20478;-76
2021/06/16 03:05:37;;;;;;;30.27;28.53;;;18.40;76.90;;;;;;4980672;28;20454;-76
2021/06/16 03:08:07;;;;;;;28.43;26.83;;;18.40;77.00;;;;;;5025779;28;20467;-76
2021/06/16 03:10:35;;;;;;;30.20;28.40;;;18.40;77.10;;;;;;5005207;28;20460;-76
2021/06/16 03:13:03;;;;;;;29.37;27.43;;;18.30;77.30;;;;;;4997995;28;20493;-76
2021/06/16 03:15:31;;;;;;;30.10;28.30;;;18.30;77.30;;;;;;5010881;28;20467;-76
2021/06/16 03:17:59;;;;;;;29.63;27.80;;;18.40;77.30;;;;;;4982836;28;20486;-76
2021/06/16 03:20:29;;;;;;;28.23;26.63;;;18.50;77.10;;;;;;4993369;28;20827;-76
2021/06/16 03:22:58;;;;;;;30.70;28.70;;;18.40;77.20;;;;;;4995877;28;20475;-76
2021/06/16 03:25:27;;;;;;;30.27;28.47;;;18.40;77.30;;;;;;4972462;28;23029;-76
2021/06/16 03:27:54;;;;;;;29.17;27.50;;;18.40;77.40;;;;;;4994335;28;20466;-76
2021/06/16 03:30:22;;;;;;;29.97;28.17;;;18.40;77.60;;;;;;5018619;28;20468;-76
2021/06/16 03:32:53;;;;;;;30.27;28.57;;;18.40;77.50;;;;;;4994650;28;20481;-76
2021/06/16 03:35:20;;;;;;;29.47;27.90;;;18.50;77.20;;;;;;4977273;28;20639;-77
2021/06/16 03:37:48;;;;;;;30.13;28.30;;;18.50;76.90;;;;;;4997251;28;20909;-77
2021/06/16 03:40:17;;;;;;;31.03;29.10;;;18.60;77.00;;;;;;5004513;28;20551;-77
2021/06/16 03:42:48;;;;;;;28.60;26.83;;;18.60;77.10;;;;;;4999722;28;21238;-77
2021/06/16 03:45:15;;;;;;;28.77;26.87;;;18.60;77.10;;;;;;4987109;28;21045;-77
2021/06/16 03:47:45;;;;;;;29.00;27.40;;;18.70;77.00;;;;;;4987218;28;20459;-77
2021/06/16 03:50:19;;;;;;;28.93;27.33;;;18.70;76.60;;;;;;4984330;28;20476;-77
2021/06/16 03:52:46;;;;;;;29.57;27.83;;;18.80;76.50;;;;;;4977623;28;20489;-77
2021/06/16 03:55:13;;;;;;;30.20;28.40;;;18.90;76.40;;;;;;4993305;28;20544;-77
2021/06/16 03:57:41;;;;;;;29.53;27.83;;;19.00;75.90;;;;;;4985705;28;20974;-78
2021/06/16 04:00:11;;;;;;;29.20;27.40;;;19.00;75.80;;;;;;4988270;28;20477;-77
2021/06/16 04:02:39;;;;;;;31.37;29.47;;;19.10;75.70;;;;;;4994963;28;20608;-77
2021/06/16 04:05:09;;;;;;;29.67;27.97;;;19.00;75.90;;;;;;4996046;28;20873;-77
2021/06/16 04:07:37;;;;;;;29.60;27.80;;;19.00;76.00;;;;;;4995520;28;20982;-77
2021/06/16 04:10:06;;;;;;;31.00;29.10;;;19.10;75.70;;;;;;4982453;28;20466;-77
2021/06/16 04:12:33;;;;;;;31.10;29.40;;;19.20;75.60;;;;;;4989675;28;20489;-77
2021/06/16 04:15:00;;;;;;;33.13;30.83;;;19.30;75.40;;;;;;4991275;28;20609;-76
2021/06/16 04:17:28;;;;;;;31.67;29.67;;;19.50;74.80;;;;;;4992246;28;20457;-77
2021/06/16 04:19:55;;;;;;;31.80;29.90;;;19.50;74.80;;;;;;4993724;28;20462;-77
2021/06/16 04:22:22;;;;;;;31.17;29.13;;;19.60;74.40;;;;;;4981171;28;20473;-77
2021/06/16 04:24:49;;;;;;;32.50;30.60;;;19.70;74.20;;;;;;4996672;28;20482;-77
2021/06/16 04:27:17;;;;;;;31.90;30.00;;;19.70;74.30;;;;;;4992138;28;20688;-77
2021/06/16 04:29:44;;;;;;;31.60;29.80;;;19.80;74.20;;;;;;4981378;28;20459;-77
2021/06/16 04:32:11;;;;;;;31.47;29.57;;;19.80;74.10;;;;;;4990427;28;20581;-77
2021/06/16 04:34:40;;;;;;;30.60;28.70;;;19.90;74.10;;;;;;4972653;28;20481;-77
2021/06/16 04:37:07;;;;;;;30.80;29.00;;;20.00;73.60;;;;;;4987230;28;20469;-77
2021/06/16 04:39:35;;;;;;;33.73;31.83;;;20.20;73.00;;;;;;5008484;28;21015;-77
2021/06/16 04:42:02;;;;;;;31.17;29.20;;;20.30;72.90;;;;;;5003494;28;20475;-77
2021/06/16 04:44:29;;;;;;;32.00;30.20;;;20.40;72.40;;;;;;4994191;28;20474;-77
2021/06/16 04:46:56;;;;;;;31.97;29.77;;;20.50;72.10;;;;;;5030631;28;20465;-77
2021/06/16 04:49:23;;;;;;;31.67;29.57;;;20.50;72.00;;;;;;4971306;28;20991;-76
2021/06/16 04:51:53;;;;;;;29.92;28.15;;;20.50;72.30;;;;;;4973287;28;20819;-76
2021/06/16 04:54:20;;;;;;;33.90;31.70;;;20.60;72.60;;;;;;4994997;28;20227;-77
2021/06/16 04:56:48;;;;;;;31.77;29.33;;;20.70;72.20;;;;;;4991930;28;20467;-78
2021/06/16 04:59:15;;;;;;;30.97;28.97;;;20.80;72.00;;;;;;4973364;28;20459;-79
2021/06/16 05:01:42;;;;;;;30.30;28.50;;;20.90;71.80;;;;;;4985815;28;21113;-75
2021/06/16 05:04:08;;;;;;;32.60;30.60;;;21.00;71.70;;;;;;4980616;28;20482;-79
2021/06/16 05:06:35;;;;;;;32.20;29.77;;;21.10;71.40;;;;;;4976850;28;20482;-78
2021/06/16 05:09:07;;;;;;;31.70;29.53;;;21.20;70.90;;;;;;4974397;28;20465;-78
2021/06/16 05:11:34;;;;;;;32.53;30.53;;;21.40;70.20;;;;;;4978607;28;20461;-77
2021/06/16 05:14:01;;;;;;;32.60;30.60;;;21.60;69.80;;;;;;4970880;28;20492;-77
2021/06/16 05:16:28;;;;;;;30.60;28.70;;;21.70;69.00;;;;;;4969248;28;20478;-77
2021/06/16 05:18:57;;;;;;;31.20;29.30;;;21.70;69.20;;;;;;4992693;28;20545;-76
2021/06/16 05:21:24;;;;;;;30.20;28.30;;;21.70;69.40;;;;;;4992273;28;20502;-79
2021/06/16 05:23:54;;;;;;;30.10;28.40;;;21.80;69.20;;;;;;4990023;28;20478;-77
2021/06/16 05:26:22;;;;;;;30.10;28.30;;;21.90;68.60;;;;;;4987445;28;20462;-78
2021/06/16 05:28:49;;;;;;;32.30;29.90;;;21.90;68.60;;;;;;4968644;28;20571;-79
2021/06/16 05:31:17;;;;;;;30.73;28.70;;;21.90;68.80;;;;;;4996828;28;20458;-77
2021/06/16 05:33:44;;;;;;;29.97;28.37;;;22.00;68.40;;;;;;4991591;28;20485;-77
2021/06/16 05:36:11;;;;;;;36.80;33.33;;;22.20;68.10;;;;;;4985270;28;20462;-77
2021/06/16 05:38:38;;;;;;;31.33;29.23;;;22.40;67.60;;;;;;4973141;28;21143;-78
2021/06/16 05:41:05;;;;;;;30.07;28.17;;;22.50;67.70;;;;;;4968001;28;20471;-78
2021/06/16 05:43:34;;;;;;;31.00;29.20;;;22.60;67.30;;;;;;4970809;28;20592;-78
2021/06/16 05:46:01;;;;;;;31.17;29.37;;;22.70;67.00;;;;;;5024437;28;20458;-78
2021/06/16 05:48:28;;;;;;;31.33;29.53;;;22.80;66.70;;;;;;4992301;28;20486;-77
2021/06/16 05:50:55;;;;;;;30.87;29.07;;;22.90;68.40;;;;;;4987184;28;20458;-76
2021/06/16 05:53:22;;;;;;;31.10;29.10;;;23.00;66.60;;;;;;5014166;28;20483;-78
2021/06/16 05:55:49;;;;;;;30.20;28.50;;;23.10;65.40;;;;;;4996764;28;20454;-78
2021/06/16 05:58:16;;;;;;;30.43;28.53;;;23.10;65.60;;;;;;5005745;28;20472;-75
2021/06/16 06:00:44;;;;;;;32.80;30.60;;;23.20;65.30;;;;;;5038471;28;20477;-75
2021/06/16 06:03:11;;;;;;;31.87;29.93;;;23.30;64.90;;;;;;5013804;28;20504;-76
2021/06/16 06:05:38;;;;;;;33.30;31.10;;;23.40;64.80;;;;;;5012242;28;20468;-76
2021/06/16 06:08:06;;;;;;;29.40;27.70;;;23.50;65.00;;;;;;5017777;28;21065;-76
2021/06/16 06:10:33;;;;;;;31.33;29.43;;;23.60;64.40;;;;;;4997819;28;20485;-75
2021/06/16 06:13:00;;;;;;;31.90;29.80;;;23.70;64.50;;;;;;4981505;28;20492;-77
2021/06/16 06:15:26;;;;;;;32.50;30.33;;;23.90;63.30;;;;;;4993281;28;21104;-76
2021/06/16 06:17:56;;;;;;;33.23;30.80;;;24.00;62.60;;;;;;4995679;28;20557;-77
2021/06/16 06:20:23;;;;;;;31.63;29.60;;;24.20;62.50;;;;;;4986441;28;20458;-77
2021/06/16 06:22:50;;;;;;;31.40;29.50;;;24.10;61.80;;;;;;4963930;28;20465;-77
2021/06/16 06:25:17;;;;;;;33.63;31.33;;;24.20;61.20;;;;;;4964990;28;20465;-77
2021/06/16 06:27:44;;;;;;;35.63;33.43;;;24.40;60.40;;;;;;4964022;28;20459;-77
2021/06/16 06:30:11;;;;;;;34.23;32.40;;;24.50;60.00;;;;;;4964685;28;20463;-77
2021/06/16 06:32:39;;;;;;;32.90;31.10;;;24.40;59.70;;;;;;5043533;28;20478;-78
2021/06/16 06:35:08;;;;;;;33.77;31.43;;;24.40;59.90;;;;;;4965647;28;20541;-77
2021/06/16 06:37:38;;;;;;;34.33;32.23;;;24.50;60.60;;;;;;4960023;28;20534;-77
2021/06/16 06:40:07;;;;;;;34.13;31.73;;;24.60;60.40;;;;;;4970729;28;20546;-77
2021/06/16 06:42:33;;;;;;;34.07;31.77;;;24.70;59.70;;;;;;4965280;28;20545;-77
2021/06/16 06:45:01;;;;;;;32.63;30.37;;;24.80;59.50;;;;;;4965137;28;20459;-77
2021/06/16 06:47:28;;;;;;;33.70;31.70;;;24.90;59.20;;;;;;4963949;28;20459;-78
2021/06/16 06:49:55;;;;;;;32.80;30.90;;;25.10;58.40;;;;;;4958926;28;20533;-77
2021/06/16 06:52:23;;;;;;;31.10;29.30;;;25.10;58.20;;;;;;4951857;28;20513;-77
2021/06/16 06:54:50;;;;;;;33.90;31.80;;;25.20;58.20;;;;;;4956355;28;20965;-77
2021/06/16 06:57:17;;;;;;;34.80;32.17;;;25.20;58.20;;;;;;4963776;28;20553;-78
2021/06/16 06:59:44;;;;;;;31.80;29.90;;;25.40;57.40;;;;;;4965777;28;20871;-78
2021/06/16 07:02:11;;;;;;;31.93;30.00;;;25.40;57.40;;;;;;4964791;28;20546;-79
2021/06/16 07:04:38;;;;;;;31.80;29.90;;;25.20;57.80;;;;;;4962644;28;20491;-77
2021/06/16 07:07:05;;;;;;;32.07;30.10;;;25.30;57.90;;;;;;4984222;28;20955;-78
2021/06/16 07:09:33;;;;;;;32.13;30.17;;;25.50;57.50;;;;;;4964147;28;20860;-78
2021/06/16 07:12:00;;;;;;;32.37;30.37;;;25.70;56.70;;;;;;4965196;28;20593;-77
2021/06/16 07:14:27;;;;;;;33.50;31.20;;;25.80;56.60;;;;;;4975196;28;20496;-77
2021/06/16 07:16:54;;;;;;;33.87;31.53;;;25.80;56.10;;;;;;4944898;28;20582;-77
2021/06/16 07:19:21;;;;;;;33.67;31.37;;;26.00;55.70;;;;;;4969519;28;20458;-77
2021/06/16 07:21:48;;;;;;;31.67;29.67;;;26.20;55.30;;;;;;4965142;28;20465;-77
2021/06/16 07:24:17;;;;;;;31.47;29.37;;;26.30;55.20;;;;;;4961239;28;20555;-77
2021/06/16 07:26:45;;;;;;;33.83;31.57;;;26.50;54.30;;;;;;4950573;28;20467;-77
2021/06/16 07:29:13;;;;;;;32.43;30.23;;;26.60;53.80;;;;;;4954755;28;20489;-77
2021/06/16 07:31:40;;;;;;;31.23;29.20;;;26.60;53.90;;;;;;4968898;28;20467;-77
2021/06/16 07:34:07;;;;;;;33.77;31.50;;;26.70;53.50;;;;;;4982308;28;20570;-77
2021/06/16 07:36:34;;;;;;;31.33;29.10;;;26.80;52.90;;;;;;4961655;28;20463;-77
2021/06/16 07:39:01;;;;;;;31.67;29.67;;;26.80;52.60;;;;;;4968842;28;20473;-76
2021/06/16 07:41:28;;;;;;;30.67;28.50;;;26.70;52.00;;;;;;4963306;28;20462;-78
2021/06/16 07:43:57;;;;;;;32.57;29.93;;;26.90;52.00;;;;;;4957933;28;20479;-79
2021/06/16 07:46:24;;;;;;;32.20;30.20;;;27.00;51.80;;;;;;4964007;28;20454;-78
2021/06/16 07:48:51;;;;;;;31.50;29.50;;;27.10;51.30;;;;;;4958697;28;20821;-78
2021/06/16 07:51:18;;;;;;;30.50;28.60;;;27.10;51.00;;;;;;4959792;28;20550;-78
2021/06/16 07:53:45;;;;;;;29.50;27.80;;;27.20;50.80;;;;;;4957545;28;20489;-79
2021/06/16 07:56:12;;;;;;;33.10;30.80;;;27.30;50.10;;;;;;4948981;28;20451;-80
2021/06/16 07:58:39;;;;;;;32.30;30.30;;;27.50;50.20;;;;;;4961906;28;20554;-78
2021/06/16 08:01:07;;;;;;;32.80;30.60;;;27.60;50.20;;;;;;4963675;28;20467;-79
2021/06/16 08:03:34;;;;;;;32.50;30.10;;;27.80;49.70;;;;;;4963134;28;20489;-78
2021/06/16 08:06:01;;;;;;;31.20;29.00;;;28.00;49.40;;;;;;4964243;28;20471;-77
2021/06/16 08:08:28;;;;;;;30.67;28.77;;;28.10;49.00;;;;;;4964539;28;20562;-77
2021/06/16 08:10:55;;;;;;;30.17;27.77;;;28.10;49.00;;;;;;4964123;28;20459;-77
2021/06/16 08:13:22;;;;;;;32.23;30.13;;;28.20;47.80;;;;;;4963324;28;20491;-77
2021/06/16 08:15:49;;;;;;;31.70;29.50;;;28.40;47.60;;;;;;4963501;28;20573;-77
2021/06/16 08:18:18;;;;;;;32.37;30.47;;;28.50;48.00;;;;;;4964938;28;20474;-77
2021/06/16 08:20:45;;;;;;;32.20;30.20;;;28.60;47.90;;;;;;4962626;28;21275;-77
2021/06/16 08:23:12;;;;;;;29.87;27.80;;;28.60;46.90;;;;;;4963744;28;20487;-77
2021/06/16 08:25:40;;;;;;;30.90;28.80;;;28.70;46.70;;;;;;4963612;28;21173;-77
2021/06/16 08:28:07;;;;;;;30.63;28.73;;;28.70;47.40;;;;;;4964332;28;20459;-77
2021/06/16 08:30:35;;;;;;;30.30;28.43;;;28.80;47.20;;;;;;4963315;28;20542;-77
2021/06/16 08:33:01;;;;;;;30.40;28.30;;;28.90;47.20;;;;;;4962608;28;20609;-79
2021/06/16 08:35:30;;;;;;;29.63;27.70;;;29.00;47.80;;;;;;4962726;28;20489;-77
2021/06/16 08:37:57;;;;;;;29.43;27.20;;;29.00;47.40;;;;;;4963352;28;20857;-77
2021/06/16 08:40:24;;;;;;;30.47;28.27;;;29.00;47.00;;;;;;4965117;28;20546;-77
2021/06/16 08:42:51;;;;;;;31.93;29.70;;;29.30;46.20;;;;;;4963441;28;20510;-77
2021/06/16 08:45:20;;;;;;;30.70;28.80;;;29.30;46.50;;;;;;4961037;28;20455;-77
2021/06/16 08:47:48;;;;;;;30.63;28.23;;;29.30;46.60;;;;;;4961836;28;21259;-77
2021/06/16 08:50:16;;;;;;;30.20;28.00;;;29.40;46.50;;;;;;4962575;28;20520;-77
2021/06/16 08:52:46;;;;;;;34.30;31.87;;;29.50;46.30;;;;;;4962725;28;20482;-77
2021/06/16 08:55:15;;;;;;;30.07;28.27;;;29.50;46.50;;;;;;4958876;28;20485;-77
2021/06/16 08:57:42;;;;;;;30.03;27.67;;;29.60;46.80;;;;;;4957366;28;20556;-77
2021/06/16 09:00:11;;;;;;;31.10;29.00;;;29.60;46.30;;;;;;4961604;28;20471;-77
2021/06/16 09:02:38;;;;;;;30.90;28.77;;;29.80;46.60;;;;;;4961645;28;20465;-77
2021/06/16 09:05:06;;;;;;;30.90;28.87;;;30.00;46.20;;;;;;4958907;28;20959;-77
2021/06/16 09:07:34;;;;;;;30.37;28.33;;;30.00;46.30;;;;;;4958770;28;20565;-77
2021/06/16 09:10:09;;;;;;;30.83;29.03;;;29.90;46.40;;;;;;4963487;28;20572;-77
2021/06/16 09:12:39;;;;;;;29.90;27.70;;;30.00;46.20;;;;;;4961676;28;20989;-78
2021/06/16 09:15:13;;;;;;;29.57;27.67;;;30.00;46.00;;;;;;4964032;28;20532;-77
2021/06/16 09:17:40;;;;;;;29.57;27.67;;;30.00;45.80;;;;;;4962066;28;20462;-77
2021/06/16 09:20:08;;;;;;;29.57;27.77;;;30.20;45.20;;;;;;4958824;28;20581;-77
2021/06/16 09:22:37;;;;;;;32.40;30.20;;;30.30;45.70;;;;;;4965522;28;20537;-77
2021/06/16 09:25:07;;;;;;;30.47;28.43;;;30.40;45.60;;;;;;4962000;28;20566;-77
2021/06/16 09:27:46;;;;;;;31.07;28.93;;;30.30;45.20;;;;;;4961936;28;20464;-77
2021/06/16 09:30:47;;;;;;;30.33;28.33;;;30.30;45.20;;;;;;4961827;28;20464;-78
2021/06/16 09:33:16;;;;;;;30.47;28.57;;;30.50;45.50;;;;;;4961547;28;20482;-77
2021/06/16 09:35:45;;;;;;;30.77;28.87;;;30.60;45.30;;;;;;4960938;28;20998;-77
2021/06/16 09:38:21;;;;;;;28.90;27.20;;;30.60;44.50;;;;;;4961735;28;20481;-77
2021/06/16 09:40:49;;;;;;;28.90;27.20;;;30.70;44.10;;;;;;4962991;28;20466;-78
2021/06/16 09:43:17;;;;;;;31.20;29.30;;;30.70;43.70;;;;;;4963258;28;20486;-78
2021/06/16 09:45:46;;;;;;;33.47;31.37;;;30.80;43.60;;;;;;4962244;28;20454;-77
2021/06/16 09:48:22;;;;;;;31.50;29.50;;;30.70;43.20;;;;;;4961230;28;20459;-78
2021/06/16 09:50:51;;;;;;;31.10;29.30;;;30.70;43.70;;;;;;4964810;28;20473;-78
2021/06/16 09:53:18;;;;;;;30.53;28.60;;;30.70;43.70;;;;;;4961917;28;21074;-77
2021/06/16 09:55:45;;;;;;;30.60;28.87;;;30.80;43.40;;;;;;4961634;28;20489;-79
2021/06/16 09:58:17;;;;;;;29.77;27.77;;;30.80;42.80;;;;;;4965818;28;20471;-79
2021/06/16 10:00:47;;;;;;;29.40;27.60;;;30.80;43.60;;;;;;4966031;28;20470;-79
2021/06/16 10:03:16;;;;;;;30.17;28.17;;;30.80;45.00;;;;;;4966443;28;20482;-78
2021/06/16 10:06:03;;;;;;;29.37;27.37;;;30.90;44.90;;;;;;4967971;28;21022;-77
2021/06/16 10:08:30;;;;;;;30.37;28.20;;;30.90;44.80;;;;;;4967713;28;20561;-79
2021/06/16 10:10:58;;;;;;;31.10;29.30;;;31.00;44.60;;;;;;4994202;28;20550;-78
2021/06/16 10:13:27;;;;;;;31.10;29.10;;;31.20;44.30;;;;;;4977892;28;20486;-78
2021/06/16 10:15:55;;;;;;;31.10;29.03;;;31.20;43.60;;;;;;4982741;28;20478;-76
2021/06/16 10:18:23;;;;;;;32.17;30.07;;;31.30;43.20;;;;;;4964364;28;20458;-76
2021/06/16 10:20:50;;;;;;;30.90;29.00;;;31.30;44.10;;;;;;4996621;28;20454;-78
2021/06/16 10:23:17;;;;;;;33.20;31.00;;;31.30;43.80;;;;;;5023656;28;20968;-77
2021/06/16 10:25:44;;;;;;;32.10;29.97;;;31.30;43.50;;;;;;4964600;28;20537;-78
2021/06/16 10:28:13;;;;;;;32.47;30.37;;;31.30;43.40;;;;;;5040972;28;21487;-77
2021/06/16 10:30:43;;;;;;;32.10;30.10;;;31.50;42.10;;;;;;4967172;28;20502;-80
2021/06/16 10:33:29;;;;;;;32.10;30.00;;;31.60;42.60;;;;;;4965458;28;20512;-79
2021/06/16 10:36:12;;;;;;;31.40;29.40;;;31.60;42.70;;;;;;4955192;28;20992;-79
2021/06/16 10:38:39;;;;;;;29.90;27.90;;;31.70;41.70;;;;;;4964332;28;20458;-79
2021/06/16 10:41:07;;;;;;;31.87;29.87;;;31.80;41.40;;;;;;4965377;28;21374;-78
2021/06/16 10:43:35;;;;;;;31.07;29.07;;;31.80;41.90;;;;;;4963017;28;20489;-78
2021/06/16 10:46:06;;;;;;;32.37;30.13;;;31.80;41.90;;;;;;5066691;28;20540;-78
2021/06/16 10:48:48;;;;;;;31.27;29.40;;;31.90;42.40;;;;;;4996932;28;20490;-79
2021/06/16 10:51:42;;;;;;;30.93;29.00;;;31.80;42.70;;;;;;4961554;28;20523;-78
2021/06/16 10:54:23;;;;;;;32.80;30.70;;;31.80;42.70;;;;;;4962078;28;21216;-79
2021/06/16 10:56:56;;;;;;;32.00;29.80;;;31.70;43.20;;;;;;4965048;28;20454;-80
2021/06/16 11:00:03;;;;;;;31.60;29.70;;;31.80;43.00;;;;;;4957149;28;20467;-79
2021/06/16 11:02:56;;;;;;;32.10;29.90;;;31.90;42.30;;;;;;4966531;28;20477;-78
2021/06/16 11:05:26;;;;;;;30.93;28.93;;;32.00;42.30;;;;;;4950658;28;20459;-81
2021/06/16 11:07:53;;;;;;;31.73;29.40;;;32.00;41.90;;;;;;4950605;28;20450;-80
2021/06/16 11:10:20;;;;;;;33.53;31.27;;;32.10;42.00;;;;;;4966701;28;20560;-79
2021/06/16 11:12:52;;;;;;;31.90;29.60;;;32.10;42.10;;;;;;4968695;28;20471;-79
2021/06/16 11:15:32;;;;;;;32.47;30.53;;;32.00;42.20;;;;;;4967617;28;20490;-78
2021/06/16 11:18:06;;;;;;;33.33;31.23;;;31.60;41.90;;;;;;4967635;28;20558;-86
2021/06/16 11:20:36;;;;;;;32.93;30.60;;;31.50;42.40;;;;;;4955808;28;20564;-83
2021/06/16 11:23:05;;;;;;;32.07;30.07;;;31.60;42.50;;;;;;4966550;28;20482;-82
2021/06/16 11:25:36;;;;;;;32.77;30.67;;;31.80;42.50;;;;;;4986174;28;20454;-82
2021/06/16 11:28:16;;;;;;;31.97;29.97;;;31.70;42.40;;;;;;4973287;28;20470;-84
2021/06/16 11:30:47;;;;;;;31.93;29.90;;;31.70;42.60;;;;;;4959453;28;20504;-82
2021/06/16 11:33:34;;;;;;;35.10;33.00;;;31.70;42.90;;;;;;4976149;28;20486;-82
2021/06/16 11:36:05;;;;;;;32.70;30.53;;;31.80;42.60;;;;;;4974833;28;20987;-82
2021/06/16 11:38:33;;;;;;;32.23;30.03;;;31.80;42.70;;;;;;4974725;28;20499;-82
2021/06/16 11:41:06;;;;;;;33.83;31.73;;;32.10;42.70;;;;;;4976284;28;20481;-83
2021/06/16 11:43:36;;;;;;;32.37;30.47;;;32.00;42.30;;;;;;4969719;28;21223;-82
2021/06/16 11:46:05;;;;;;;32.40;30.50;;;32.10;42.20;;;;;;4966616;28;20467;-82
2021/06/16 11:48:34;;;;;;;33.57;31.57;;;31.80;42.30;;;;;;4991780;28;20467;-82
2021/06/16 11:51:00;;;;;;;31.67;29.80;;;31.80;41.90;;;;;;4969070;28;20572;-82
2021/06/16 11:53:31;;;;;;;33.33;31.33;;;32.00;41.90;;;;;;5045424;28;20517;-82
2021/06/16 11:56:02;;;;;;;32.53;30.53;;;32.20;42.20;;;;;;4990184;28;20474;-82
2021/06/16 11:58:31;;;;;;;33.40;31.10;;;32.20;41.40;;;;;;5046221;28;20467;-82
2021/06/16 12:01:19;;;;;;;34.97;32.70;;;32.20;41.30;;;;;;4971877;28;21073;-82
2021/06/16 12:03:59;;;;;;;34.70;32.70;;;32.40;41.10;;;;;;4971058;28;20489;-83
2021/06/16 12:06:26;;;;;;;33.87;31.77;;;32.40;40.60;;;;;;4976928;28;20456;-83
2021/06/16 12:08:57;;;;;;;34.50;32.50;;;32.40;41.60;;;;;;4969358;28;20455;-82
2021/06/16 12:11:26;;;;;;;35.57;33.40;;;32.60;40.90;;;;;;4961092;28;20522;-82
2021/06/16 12:14:02;;;;;;;34.37;32.27;;;32.70;41.00;;;;;;4971404;28;20485;-82
2021/06/16 12:16:32;;;;;;;35.00;32.90;;;32.90;41.00;;;;;;4955017;28;20485;-82
2021/06/16 12:19:16;;;;;;;39.20;37.00;;;33.10;40.80;;;;;;4962677;28;20470;-83
2021/06/16 12:21:56;;;;;;;34.57;32.47;;;33.10;40.90;;;;;;4956199;28;20474;-82
2021/06/16 12:24:26;;;;;;;34.70;32.60;;;32.90;40.20;;;;;;4966347;28;20466;-83
2021/06/16 12:27:02;;;;;;;34.70;32.47;;;32.70;40.40;;;;;;4973887;28;20443;-83
2021/06/16 12:29:29;;;;;;;36.73;34.23;;;32.70;40.80;;;;;;4993614;28;20610;-83
2021/06/16 12:31:59;;;;;;;35.60;33.40;;;32.60;41.40;;;;;;4957059;28;20463;-82
2021/06/16 12:34:40;;;;;;;37.20;34.90;;;32.70;41.60;;;;;;5037832;28;20514;-82
2021/06/16 12:37:11;;;;;;;36.90;34.50;;;32.90;41.90;;;;;;4982854;28;20451;-82
2021/06/16 12:39:53;;;;;;;35.40;32.87;;;33.20;41.60;;;;;;4997459;28;20497;-83